Time;durP1;ratioP1;P1;durP2;ratioP2;P2;SDS_P1;SDS_P2;PMS_P1;PMS_P2;Temp;Humidity;BMP_temperature;BMP_pressure;BME280_temperature;BME280_humidity;BME280_pressure;Samples;Min_cycle;Max_cycle;Signal;HPM_P1;HPM_P2
2022/05/29 00:00:55;;;;;;;18.30;6.03;;;;;;;;;;5049372;28;20507;-81
2022/05/29 00:03:22;;;;;;;24.52;6.13;;;;;;;;;;5046651;28;20422;-81
2022/05/29 00:05:50;;;;;;;25.67;7.22;;;;;;;;;;5051388;28;20429;-80
2022/05/29 00:08:20;;;;;;;20.98;6.68;;;;;;;;;;5049328;28;20421;-80
2022/05/29 00:10:46;;;;;;;15.55;4.82;;;;;;;;;;5047668;28;20502;-79
2022/05/29 00:13:13;;;;;;;18.13;5.70;;;;;;;;;;5045006;28;20475;-80
2022/05/29 00:15:39;;;;;;;15.60;5.93;;;;;;;;;;5047334;28;20486;-79
2022/05/29 00:18:06;;;;;;;17.05;6.00;;;;;;;;;;5047003;28;20429;-79
2022/05/29 00:20:32;;;;;;;18.73;5.35;;;;;;;;;;5044678;28;20494;-79
2022/05/29 00:23:00;;;;;;;18.27;5.80;;;;;;;;;;5049213;28;20418;-79
2022/05/29 00:25:26;;;;;;;17.95;5.88;;;;;;;;;;5044610;28;20482;-79
2022/05/29 00:27:52;;;;;;;18.63;5.97;;;;;;;;;;5047239;28;20496;-79
2022/05/29 00:30:18;;;;;;;20.13;5.60;;;;;;;;;;5049115;28;20417;-78
2022/05/29 00:32:45;;;;;;;18.15;6.10;;;;;;;;;;5044716;28;20432;-78
2022/05/29 00:35:11;;;;;;;16.95;5.32;;;;;;;;;;5048933;28;20429;-79
2022/05/29 00:37:39;;;;;;;15.40;4.70;;;;;;;;;;5048071;28;20981;-80
2022/05/29 00:40:13;;;;;;;19.95;4.82;;;;;;;;;;5046344;28;20925;-79
2022/05/29 00:42:39;;;;;;;15.35;4.80;;;;;;;;;;5045292;28;20443;-79
2022/05/29 00:45:09;;;;;;;19.80;4.90;;;;;;;;;;5046608;28;20835;-79
2022/05/29 00:47:35;;;;;;;16.92;4.97;;;;;;;;;;5049525;28;20435;-82
2022/05/29 00:50:01;;;;;;;14.37;4.57;;;;;;;;;;5048067;28;20437;-79
2022/05/29 00:52:29;;;;;;;16.30;4.97;;;;;;;;;;5049732;28;20950;-80
2022/05/29 00:54:56;;;;;;;18.63;5.05;;;;;;;;;;5047295;28;20456;-80
2022/05/29 00:57:27;;;;;;;12.93;4.43;;;;;;;;;;5047600;28;20433;-79
2022/05/29 00:59:54;;;;;;;18.23;4.70;;;;;;;;;;5047568;28;20433;-80
2022/05/29 01:02:20;;;;;;;19.48;4.43;;;;;;;;;;5048303;28;20409;-78
2022/05/29 01:04:47;;;;;;;16.98;5.30;;;;;;;;;;5048961;28;20440;-79
2022/05/29 01:07:15;;;;;;;13.73;5.00;;;;;;;;;;5047191;28;20479;-81
2022/05/29 01:09:43;;;;;;;17.65;5.10;;;;;;;;;;5050868;28;20491;-80
2022/05/29 01:12:14;;;;;;;14.88;5.03;;;;;;;;;;5050173;28;20915;-81
2022/05/29 01:14:47;;;;;;;17.88;5.70;;;;;;;;;;5045538;28;20425;-80
2022/05/29 01:17:19;;;;;;;16.05;4.90;;;;;;;;;;5044835;28;20413;-80
2022/05/29 01:19:57;;;;;;;16.17;5.32;;;;;;;;;;5046760;28;20490;-78
2022/05/29 01:22:33;;;;;;;16.98;4.93;;;;;;;;;;5050690;28;20416;-80
2022/05/29 01:25:19;;;;;;;15.82;4.40;;;;;;;;;;5052905;28;20474;-80
2022/05/29 01:27:55;;;;;;;19.00;5.30;;;;;;;;;;5049583;28;20593;-81
2022/05/29 01:30:24;;;;;;;18.98;5.85;;;;;;;;;;5050981;28;20441;-81
2022/05/29 01:32:53;;;;;;;17.30;5.63;;;;;;;;;;5052030;28;20429;-80
2022/05/29 01:35:23;;;;;;;16.10;5.17;;;;;;;;;;5050799;28;20456;-80
2022/05/29 01:37:50;;;;;;;15.32;5.28;;;;;;;;;;5052372;28;20417;-80
2022/05/29 01:40:23;;;;;;;13.18;4.57;;;;;;;;;;5054108;28;20428;-80
2022/05/29 01:42:51;;;;;;;11.35;5.50;;;;;;;;;;5052849;28;20426;-81
2022/05/29 01:45:19;;;;;;;20.15;5.45;;;;;;;;;;5052094;28;20499;-80
2022/05/29 01:47:48;;;;;;;15.18;4.68;;;;;;;;;;5053873;28;20487;-79
2022/05/29 01:50:18;;;;;;;13.70;5.10;;;;;;;;;;5052960;28;20413;-80
2022/05/29 01:52:47;;;;;;;15.68;5.28;;;;;;;;;;5046089;28;20842;-78
2022/05/29 01:55:19;;;;;;;10.48;4.80;;;;;;;;;;5053375;28;20433;-80
2022/05/29 01:57:47;;;;;;;13.63;5.00;;;;;;;;;;5050934;28;20421;-80
2022/05/29 02:00:17;;;;;;;18.58;4.80;;;;;;;;;;5053482;28;20545;-80
2022/05/29 02:02:46;;;;;;;18.85;5.50;;;;;;;;;;5049647;28;20437;-80
2022/05/29 02:05:15;;;;;;;17.40;5.45;;;;;;;;;;5053974;28;20425;-80
2022/05/29 02:07:49;;;;;;;16.90;5.27;;;;;;;;;;5052688;28;20429;-80
2022/05/29 02:10:18;;;;;;;14.75;5.40;;;;;;;;;;5049298;28;20784;-80
2022/05/29 02:12:46;;;;;;;14.02;5.28;;;;;;;;;;5054595;28;20468;-80
2022/05/29 02:15:15;;;;;;;20.25;5.80;;;;;;;;;;5051627;28;20429;-79
2022/05/29 02:17:42;;;;;;;16.75;5.10;;;;;;;;;;5053214;28;21143;-80
2022/05/29 02:20:11;;;;;;;15.55;4.78;;;;;;;;;;5049655;28;20429;-80
2022/05/29 02:22:40;;;;;;;16.42;4.80;;;;;;;;;;5051691;28;20421;-81
2022/05/29 02:25:08;;;;;;;13.98;4.43;;;;;;;;;;5051146;28;20432;-81
2022/05/29 02:27:36;;;;;;;17.25;4.75;;;;;;;;;;5049044;28;20421;-80
2022/05/29 02:30:04;;;;;;;12.55;4.40;;;;;;;;;;5050020;28;20871;-79
2022/05/29 02:32:34;;;;;;;16.65;5.50;;;;;;;;;;5050924;28;20475;-79
2022/05/29 02:35:05;;;;;;;12.13;5.22;;;;;;;;;;5050705;28;20479;-79
2022/05/29 02:37:32;;;;;;;14.40;4.85;;;;;;;;;;5047440;28;20463;-81
2022/05/29 02:40:04;;;;;;;15.05;4.90;;;;;;;;;;5049573;28;20505;-81
2022/05/29 02:42:35;;;;;;;17.25;5.10;;;;;;;;;;5050927;28;20754;-80
2022/05/29 02:45:05;;;;;;;17.63;4.95;;;;;;;;;;5050482;28;20432;-81
2022/05/29 02:47:36;;;;;;;15.90;4.90;;;;;;;;;;5051309;28;20489;-80
2022/05/29 02:50:20;;;;;;;15.65;5.10;;;;;;;;;;5051493;28;20429;-79
2022/05/29 02:52:51;;;;;;;13.02;5.30;;;;;;;;;;5038398;28;20479;-80
2022/05/29 02:55:18;;;;;;;13.18;4.45;;;;;;;;;;5051997;28;21015;-80
2022/05/29 02:57:45;;;;;;;15.67;4.77;;;;;;;;;;5048018;28;20997;-78
2022/05/29 03:00:13;;;;;;;21.23;5.25;;;;;;;;;;5052929;28;20854;-82
2022/05/29 03:02:41;;;;;;;17.02;5.40;;;;;;;;;;5053433;28;20437;-81
2022/05/29 03:05:14;;;;;;;15.15;5.32;;;;;;;;;;5049134;28;20444;-80
2022/05/29 03:07:43;;;;;;;14.05;5.30;;;;;;;;;;5051447;28;20494;-81
2022/05/29 03:10:13;;;;;;;15.30;4.78;;;;;;;;;;5054509;28;20461;-80
2022/05/29 03:12:47;;;;;;;14.35;4.97;;;;;;;;;;5051125;28;20471;-81
2022/05/29 03:15:22;;;;;;;21.83;5.53;;;;;;;;;;5052106;28;20421;-81
2022/05/29 03:17:52;;;;;;;11.85;4.95;;;;;;;;;;5054276;28;20413;-80
2022/05/29 03:20:23;;;;;;;17.65;5.57;;;;;;;;;;5050103;28;20429;-80
2022/05/29 03:22:56;;;;;;;13.93;5.25;;;;;;;;;;5051909;28;20425;-80
2022/05/29 03:25:24;;;;;;;16.70;5.75;;;;;;;;;;5046867;28;20443;-78
2022/05/29 03:27:53;;;;;;;19.30;5.13;;;;;;;;;;5048784;28;20421;-80
2022/05/29 03:30:21;;;;;;;19.38;5.00;;;;;;;;;;5050156;28;20515;-81
2022/05/29 03:32:48;;;;;;;14.85;4.78;;;;;;;;;;5048193;28;20484;-79
2022/05/29 03:35:23;;;;;;;20.27;5.63;;;;;;;;;;5046156;28;20467;-80
2022/05/29 03:37:50;;;;;;;16.93;5.00;;;;;;;;;;5048052;28;20475;-79
2022/05/29 03:40:16;;;;;;;15.38;5.28;;;;;;;;;;5049856;28;20435;-81
2022/05/29 03:42:43;;;;;;;19.38;5.25;;;;;;;;;;5047063;28;20557;-81
2022/05/29 03:45:11;;;;;;;12.88;5.20;;;;;;;;;;5045419;28;20834;-79
2022/05/29 03:47:38;;;;;;;16.23;5.38;;;;;;;;;;5048127;28;20484;-80
2022/05/29 03:50:05;;;;;;;17.38;5.05;;;;;;;;;;5046991;28;20848;-80
2022/05/29 03:52:31;;;;;;;17.50;5.60;;;;;;;;;;5049978;28;20468;-80
2022/05/29 03:54:58;;;;;;;18.42;5.47;;;;;;;;;;5048805;28;20433;-81
2022/05/29 03:57:24;;;;;;;15.73;5.40;;;;;;;;;;5050033;28;21009;-80
2022/05/29 03:59:50;;;;;;;11.63;5.00;;;;;;;;;;5047313;28;20451;-80
2022/05/29 04:02:18;;;;;;;17.55;5.35;;;;;;;;;;5045777;28;20451;-80
2022/05/29 04:04:44;;;;;;;19.40;5.70;;;;;;;;;;5046960;28;20491;-79
2022/05/29 04:07:11;;;;;;;12.98;5.20;;;;;;;;;;5047346;28;20470;-80
2022/05/29 04:12:22;;;;;;;17.50;5.47;;;;;;;;;;5047889;28;20507;-80
2022/05/29 04:14:48;;;;;;;20.08;5.47;;;;;;;;;;5047457;28;20437;-82
2022/05/29 04:17:16;;;;;;;13.00;5.00;;;;;;;;;;5045588;28;20409;-81
2022/05/29 04:19:44;;;;;;;19.08;5.53;;;;;;;;;;5048828;28;20441;-81
2022/05/29 04:22:12;;;;;;;15.55;5.38;;;;;;;;;;5048014;28;20479;-83
2022/05/29 04:24:38;;;;;;;16.55;5.95;;;;;;;;;;5051346;28;20460;-81
2022/05/29 04:27:05;;;;;;;13.48;5.20;;;;;;;;;;5051550;28;20417;-80
2022/05/29 04:29:32;;;;;;;23.48;5.72;;;;;;;;;;5049029;28;20417;-81
2022/05/29 04:34:44;;;;;;;12.60;5.20;;;;;;;;;;5047068;28;20414;-79
2022/05/29 04:37:10;;;;;;;22.10;6.00;;;;;;;;;;5046773;28;20502;-80
2022/05/29 04:39:36;;;;;;;16.85;5.60;;;;;;;;;;5048247;28;20981;-80
2022/05/29 04:42:03;;;;;;;14.70;6.10;;;;;;;;;;5047168;28;20435;-82
2022/05/29 04:44:30;;;;;;;18.58;5.40;;;;;;;;;;5048025;28;20514;-79
2022/05/29 04:46:57;;;;;;;17.73;6.03;;;;;;;;;;5046721;28;20406;-81
2022/05/29 04:49:23;;;;;;;16.27;5.82;;;;;;;;;;5041347;28;20440;-80
2022/05/29 04:51:50;;;;;;;17.10;5.72;;;;;;;;;;5046336;28;20433;-80
2022/05/29 04:54:17;;;;;;;16.58;5.60;;;;;;;;;;5048244;28;20425;-81
2022/05/29 04:56:46;;;;;;;18.65;5.85;;;;;;;;;;5048781;28;20432;-81
2022/05/29 04:59:12;;;;;;;16.20;6.05;;;;;;;;;;5051024;28;20480;-80
2022/05/29 05:01:38;;;;;;;20.35;5.90;;;;;;;;;;5051559;28;20980;-82
2022/05/29 05:04:05;;;;;;;22.13;6.78;;;;;;;;;;5051370;28;20487;-80
2022/05/29 05:06:31;;;;;;;17.55;6.38;;;;;;;;;;5049878;28;20482;-81
2022/05/29 05:08:59;;;;;;;19.05;6.43;;;;;;;;;;5048899;28;20527;-79
2022/05/29 05:11:25;;;;;;;24.00;6.47;;;;;;;;;;5050498;28;20429;-80
2022/05/29 05:13:51;;;;;;;12.95;5.40;;;;;;;;;;5047808;28;20441;-79
2022/05/29 05:16:18;;;;;;;23.10;6.00;;;;;;;;;;5050752;28;20445;-80
2022/05/29 05:18:44;;;;;;;18.23;6.25;;;;;;;;;;5049610;28;20421;-78
2022/05/29 05:21:10;;;;;;;19.88;6.70;;;;;;;;;;5067364;23;20853;-83
2022/05/29 05:23:37;;;;;;;25.77;6.43;;;;;;;;;;5040920;28;20478;-82
2022/05/29 05:26:09;;;;;;;14.77;5.00;;;;;;;;;;5043986;28;20921;-83
2022/05/29 05:28:36;;;;;;;15.13;5.82;;;;;;;;;;5043518;28;20551;-82
2022/05/29 05:31:02;;;;;;;19.90;5.97;;;;;;;;;;5042849;28;20494;-83
2022/05/29 05:33:28;;;;;;;20.05;6.10;;;;;;;;;;5043895;28;20429;-81
2022/05/29 05:35:55;;;;;;;14.98;5.57;;;;;;;;;;5044357;28;20430;-82
2022/05/29 05:38:22;;;;;;;19.67;5.55;;;;;;;;;;5046082;28;20511;-83
2022/05/29 05:40:48;;;;;;;14.23;5.30;;;;;;;;;;5040430;28;20435;-83
2022/05/29 05:43:19;;;;;;;16.00;5.07;;;;;;;;;;5043565;28;20484;-81
2022/05/29 05:45:45;;;;;;;16.63;5.43;;;;;;;;;;5045330;28;20458;-82
2022/05/29 05:48:12;;;;;;;14.03;5.20;;;;;;;;;;5044516;28;20504;-82
2022/05/29 05:50:38;;;;;;;21.00;5.35;;;;;;;;;;5044080;28;20446;-82
2022/05/29 05:53:04;;;;;;;11.40;4.80;;;;;;;;;;5044121;28;21023;-83
2022/05/29 05:55:31;;;;;;;17.83;5.22;;;;;;;;;;5043571;28;20445;-83
2022/05/29 05:57:57;;;;;;;18.50;4.72;;;;;;;;;;5042132;28;20502;-82
2022/05/29 06:00:25;;;;;;;11.30;4.10;;;;;;;;;;5045036;28;20433;-82
2022/05/29 06:02:51;;;;;;;12.70;4.80;;;;;;;;;;5041422;28;20489;-83
2022/05/29 06:05:17;;;;;;;17.17;5.03;;;;;;;;;;5041700;28;20437;-81
2022/05/29 06:07:43;;;;;;;18.23;4.90;;;;;;;;;;5043416;28;20834;-82
2022/05/29 06:10:10;;;;;;;15.23;4.50;;;;;;;;;;5042712;28;20850;-82
2022/05/29 06:12:37;;;;;;;13.38;4.80;;;;;;;;;;5042786;28;20415;-82
2022/05/29 06:15:04;;;;;;;12.82;5.13;;;;;;;;;;5043308;28;20520;-82
2022/05/29 06:17:31;;;;;;;14.25;4.43;;;;;;;;;;5043234;28;20964;-83
2022/05/29 06:19:59;;;;;;;14.30;5.32;;;;;;;;;;5044241;28;20479;-82
2022/05/29 06:22:25;;;;;;;16.08;4.55;;;;;;;;;;5040436;28;20434;-84
2022/05/29 06:24:51;;;;;;;11.83;4.20;;;;;;;;;;5044143;28;20489;-82
2022/05/29 06:27:17;;;;;;;9.82;4.65;;;;;;;;;;5038277;28;20425;-84
2022/05/29 06:29:44;;;;;;;15.90;4.60;;;;;;;;;;5042732;28;20479;-82
2022/05/29 06:32:12;;;;;;;12.70;4.57;;;;;;;;;;5041576;28;20417;-82
2022/05/29 06:34:39;;;;;;;14.45;4.85;;;;;;;;;;5037291;28;20464;-83
2022/05/29 06:37:06;;;;;;;16.02;4.93;;;;;;;;;;5043980;28;20413;-83
2022/05/29 06:39:32;;;;;;;13.32;4.63;;;;;;;;;;5043307;28;21168;-83
2022/05/29 06:41:58;;;;;;;12.18;5.10;;;;;;;;;;5041132;28;20461;-83
2022/05/29 06:44:25;;;;;;;13.85;4.47;;;;;;;;;;5040814;28;20435;-82
2022/05/29 06:46:51;;;;;;;14.75;5.10;;;;;;;;;;5045238;28;20429;-83
2022/05/29 06:49:17;;;;;;;13.15;5.20;;;;;;;;;;5043822;28;20909;-84
2022/05/29 06:51:45;;;;;;;17.65;5.10;;;;;;;;;;5043504;28;20428;-83
2022/05/29 06:54:11;;;;;;;12.68;4.90;;;;;;;;;;5043136;28;20438;-82
2022/05/29 06:56:37;;;;;;;15.07;5.30;;;;;;;;;;5041660;28;20441;-81
2022/05/29 06:59:06;;;;;;;15.73;4.85;;;;;;;;;;5041393;28;20437;-84
2022/05/29 07:07:03;;;;;;;15.15;5.22;;;;;;;;;;5044638;28;20535;-83
2022/05/29 07:09:30;;;;;;;14.10;5.03;;;;;;;;;;5035419;28;20515;-82
2022/05/29 07:11:57;;;;;;;12.37;4.80;;;;;;;;;;5037173;28;20405;-81
2022/05/29 07:14:24;;;;;;;16.48;5.05;;;;;;;;;;5043805;28;20483;-82
2022/05/29 07:16:50;;;;;;;17.02;4.55;;;;;;;;;;5040272;28;20433;-84
2022/05/29 07:19:20;;;;;;;17.02;5.22;;;;;;;;;;5038614;28;20433;-82
2022/05/29 07:21:46;;;;;;;13.63;4.80;;;;;;;;;;5041177;28;20438;-84
2022/05/29 07:24:13;;;;;;;14.65;4.65;;;;;;;;;;5038625;28;20431;-83
2022/05/29 07:26:40;;;;;;;13.60;4.70;;;;;;;;;;5040441;28;20435;-84
2022/05/29 07:29:06;;;;;;;12.63;4.60;;;;;;;;;;5041567;28;20475;-82
2022/05/29 07:31:32;;;;;;;11.80;4.28;;;;;;;;;;5040963;28;20430;-82
2022/05/29 07:33:58;;;;;;;10.65;4.35;;;;;;;;;;5037963;28;20431;-82
2022/05/29 07:36:26;;;;;;;10.48;4.22;;;;;;;;;;5042267;28;20479;-82
2022/05/29 07:38:52;;;;;;;14.35;4.10;;;;;;;;;;5040877;28;20490;-83
2022/05/29 07:44:04;;;;;;;13.40;4.30;;;;;;;;;;5038847;28;20458;-82
2022/05/29 07:46:31;;;;;;;15.00;3.83;;;;;;;;;;5043805;28;20436;-82
2022/05/29 07:48:57;;;;;;;9.88;3.80;;;;;;;;;;5039426;28;20848;-83
2022/05/29 07:51:23;;;;;;;12.60;4.00;;;;;;;;;;5043184;28;20433;-81
2022/05/29 07:53:49;;;;;;;13.40;4.40;;;;;;;;;;5033524;28;20552;-81
2022/05/29 07:56:16;;;;;;;13.47;5.50;;;;;;;;;;5035957;28;20448;-82
2022/05/29 07:58:44;;;;;;;15.33;5.47;;;;;;;;;;5032177;28;21278;-82
2022/05/29 08:01:11;;;;;;;12.75;5.10;;;;;;;;;;5037607;28;21277;-82
2022/05/29 08:03:37;;;;;;;15.63;4.90;;;;;;;;;;5037818;28;21046;-82
2022/05/29 08:06:03;;;;;;;13.52;4.60;;;;;;;;;;5040310;28;20430;-83
2022/05/29 08:08:31;;;;;;;12.48;5.05;;;;;;;;;;5039022;28;20498;-83
2022/05/29 08:10:57;;;;;;;13.40;5.20;;;;;;;;;;5038361;28;20430;-82
2022/05/29 08:13:24;;;;;;;16.63;5.38;;;;;;;;;;5038563;28;20405;-83
2022/05/29 08:15:52;;;;;;;13.20;4.50;;;;;;;;;;5040363;28;20407;-82
2022/05/29 08:18:18;;;;;;;15.07;5.30;;;;;;;;;;5036950;28;20786;-83
2022/05/29 08:20:44;;;;;;;13.73;4.88;;;;;;;;;;5040182;28;20840;-83
2022/05/29 08:23:11;;;;;;;12.00;4.57;;;;;;;;;;5040136;28;21122;-83
2022/05/29 08:31:06;;;;;;;7.65;3.60;;;;;;;;;;5038111;28;20424;-81
2022/05/29 08:33:33;;;;;;;10.17;4.03;;;;;;;;;;5039882;28;20433;-81
2022/05/29 08:36:01;;;;;;;9.48;3.25;;;;;;;;;;5040677;28;20862;-82
2022/05/29 08:38:28;;;;;;;10.43;3.67;;;;;;;;;;5036691;28;20923;-81
2022/05/29 08:40:56;;;;;;;9.98;3.35;;;;;;;;;;5034941;28;20430;-81
2022/05/29 08:43:26;;;;;;;11.65;4.32;;;;;;;;;;5039837;28;20935;-82
2022/05/29 08:45:52;;;;;;;11.00;4.00;;;;;;;;;;5035075;28;20487;-82
2022/05/29 08:48:21;;;;;;;12.45;4.90;;;;;;;;;;5037658;28;20448;-82
2022/05/29 08:50:53;;;;;;;13.73;4.07;;;;;;;;;;5035153;28;20465;-81
2022/05/29 08:53:25;;;;;;;10.20;3.65;;;;;;;;;;5039099;28;20413;-82
2022/05/29 08:55:53;;;;;;;10.70;3.50;;;;;;;;;;5039677;28;20434;-82
2022/05/29 08:58:27;;;;;;;18.05;5.25;;;;;;;;;;5040161;28;20433;-83
2022/05/29 09:00:58;;;;;;;14.55;4.50;;;;;;;;;;5039117;28;20492;-82
2022/05/29 09:03:42;;;;;;;16.23;4.80;;;;;;;;;;5039557;28;20429;-83
2022/05/29 09:06:11;;;;;;;13.85;4.07;;;;;;;;;;5040342;28;20915;-81
2022/05/29 09:08:41;;;;;;;15.98;4.13;;;;;;;;;;5034249;28;20429;-82
2022/05/29 09:11:10;;;;;;;15.63;3.88;;;;;;;;;;5039342;28;20477;-82
2022/05/29 09:13:40;;;;;;;15.07;3.30;;;;;;;;;;5039042;28;20421;-81
2022/05/29 09:16:08;;;;;;;14.32;3.95;;;;;;;;;;5037343;28;20425;-82
2022/05/29 09:18:39;;;;;;;13.30;4.05;;;;;;;;;;5039080;28;20474;-82
2022/05/29 09:21:07;;;;;;;13.80;3.70;;;;;;;;;;5039148;28;20441;-84
2022/05/29 09:23:35;;;;;;;14.77;4.10;;;;;;;;;;5040314;28;20421;-82
2022/05/29 09:26:06;;;;;;;15.18;4.55;;;;;;;;;;5038373;28;21199;-79
2022/05/29 09:28:33;;;;;;;14.20;4.50;;;;;;;;;;5038181;28;20995;-82
2022/05/29 09:31:05;;;;;;;15.10;4.03;;;;;;;;;;5040926;28;20445;-83
2022/05/29 09:33:31;;;;;;;11.73;3.67;;;;;;;;;;5040690;28;20561;-82
2022/05/29 09:36:03;;;;;;;9.90;3.70;;;;;;;;;;5039920;28;20427;-83
2022/05/29 09:38:32;;;;;;;10.20;3.60;;;;;;;;;;5040351;28;20425;-81
2022/05/29 09:41:02;;;;;;;7.80;3.30;;;;;;;;;;5039295;28;20432;-83
2022/05/29 09:43:29;;;;;;;9.00;3.00;;;;;;;;;;5039793;28;20490;-83
2022/05/29 09:45:55;;;;;;;9.15;3.00;;;;;;;;;;5043196;28;20456;-82
2022/05/29 09:51:13;;;;;;;8.00;2.97;;;;;;;;;;5044338;28;20571;-82
2022/05/29 09:53:44;;;;;;;7.53;2.65;;;;;;;;;;5044599;28;20836;-83
2022/05/29 09:56:11;;;;;;;8.43;2.75;;;;;;;;;;5041812;28;20429;-83
2022/05/29 09:58:40;;;;;;;6.55;2.40;;;;;;;;;;5043031;28;20427;-82
2022/05/29 10:01:07;;;;;;;7.50;2.40;;;;;;;;;;5042152;28;20500;-83
2022/05/29 10:03:44;;;;;;;7.72;2.58;;;;;;;;;;5043230;28;20433;-82
2022/05/29 10:06:14;;;;;;;6.38;2.83;;;;;;;;;;5043007;28;20431;-83
2022/05/29 10:08:41;;;;;;;7.63;2.90;;;;;;;;;;5043668;28;20948;-79
2022/05/29 10:11:18;;;;;;;9.60;2.60;;;;;;;;;;5043768;28;20434;-82
2022/05/29 10:13:45;;;;;;;9.65;2.58;;;;;;;;;;5044428;28;20501;-83
2022/05/29 10:16:12;;;;;;;7.95;2.50;;;;;;;;;;5042036;28;20430;-82
2022/05/29 10:18:39;;;;;;;7.95;2.80;;;;;;;;;;5040207;28;21148;-80
2022/05/29 10:21:07;;;;;;;7.73;2.90;;;;;;;;;;5042720;28;20433;-82
2022/05/29 10:23:36;;;;;;;8.05;3.05;;;;;;;;;;5043767;28;20411;-84
2022/05/29 10:26:05;;;;;;;8.97;2.87;;;;;;;;;;5042663;28;20437;-83
2022/05/29 10:28:32;;;;;;;6.68;1.80;;;;;;;;;;5043583;28;20836;-83
2022/05/29 10:31:00;;;;;;;4.97;2.15;;;;;;;;;;5042892;28;20487;-83
2022/05/29 10:33:28;;;;;;;5.13;2.20;;;;;;;;;;5043893;28;20895;-84
2022/05/29 10:35:56;;;;;;;6.15;2.78;;;;;;;;;;5043734;28;20430;-84
2022/05/29 10:38:27;;;;;;;7.35;2.30;;;;;;;;;;5041246;28;20997;-81
2022/05/29 10:40:56;;;;;;;9.35;2.50;;;;;;;;;;5042903;28;20440;-82
2022/05/29 10:43:50;;;;;;;9.80;2.87;;;;;;;;;;5041673;28;20502;-82
2022/05/29 10:46:18;;;;;;;7.70;3.13;;;;;;;;;;4996665;28;20438;-82
2022/05/29 10:49:03;;;;;;;6.88;3.00;;;;;;;;;;5043576;28;20445;-81
2022/05/29 10:51:32;;;;;;;12.43;3.47;;;;;;;;;;5043064;28;20981;-81
2022/05/29 10:54:11;;;;;;;8.13;3.30;;;;;;;;;;5044740;28;20846;-84
2022/05/29 10:56:45;;;;;;;6.25;2.70;;;;;;;;;;5043243;28;20426;-83
2022/05/29 10:59:21;;;;;;;10.68;3.10;;;;;;;;;;5045768;28;20429;-82
2022/05/29 11:05:02;;;;;;;8.38;2.88;;;;;;;;;;5043264;28;20482;-84
2022/05/29 11:07:33;;;;;;;10.05;3.30;;;;;;;;;;5044253;28;20438;-81
2022/05/29 11:10:06;;;;;;;11.43;3.80;;;;;;;;;;5045758;28;20921;-82
2022/05/29 11:12:39;;;;;;;8.15;3.10;;;;;;;;;;5042533;28;20422;-82
2022/05/29 11:15:13;;;;;;;7.93;2.92;;;;;;;;;;5044348;28;20499;-82
2022/05/29 11:17:46;;;;;;;7.60;3.40;;;;;;;;;;5044263;28;20438;-85
2022/05/29 11:20:18;;;;;;;9.67;3.40;;;;;;;;;;5043679;28;20883;-85
2022/05/29 11:22:46;;;;;;;9.45;3.20;;;;;;;;;;5048173;22;20426;-79
2022/05/29 11:25:19;;;;;;;7.97;2.75;;;;;;;;;;5028257;28;20443;-82
2022/05/29 11:27:52;;;;;;;7.75;2.97;;;;;;;;;;5026250;28;20423;-80
2022/05/29 11:30:23;;;;;;;9.43;3.30;;;;;;;;;;5024092;28;20484;-81
2022/05/29 11:32:56;;;;;;;9.40;2.80;;;;;;;;;;5024689;28;20419;-82
2022/05/29 11:35:27;;;;;;;7.20;3.00;;;;;;;;;;5025156;28;20471;-82
2022/05/29 11:37:59;;;;;;;6.55;2.72;;;;;;;;;;5024680;28;20419;-82
2022/05/29 11:40:27;;;;;;;7.93;2.83;;;;;;;;;;5024269;28;20737;-83
2022/05/29 11:42:58;;;;;;;6.43;2.72;;;;;;;;;;5022373;28;20417;-83
2022/05/29 11:51:06;;;;;;;6.32;2.60;;;;;;;;;;5023076;28;20435;-83
2022/05/29 11:51:15;;;;;;;6.72;2.45;;;;;;;;;;5019398;28;20786;-83
2022/05/29 11:53:43;;;;;;;6.78;2.30;;;;;;;;;;5019689;28;20419;-82
2022/05/29 11:56:12;;;;;;;5.72;2.40;;;;;;;;;;5019855;28;20430;-83
2022/05/29 11:58:41;;;;;;;8.88;2.80;;;;;;;;;;5019197;28;20856;-83
2022/05/29 12:01:10;;;;;;;12.80;3.05;;;;;;;;;;5018586;28;20434;-83
2022/05/29 12:03:43;;;;;;;13.48;2.90;;;;;;;;;;5018973;28;20433;-84
2022/05/29 12:06:12;;;;;;;8.27;3.17;;;;;;;;;;5019505;28;20537;-83
2022/05/29 12:08:45;;;;;;;9.77;2.75;;;;;;;;;;5018530;28;20438;-83
2022/05/29 12:11:28;;;;;;;10.07;2.75;;;;;;;;;;5019251;28;20467;-83
2022/05/29 12:13:57;;;;;;;9.35;3.13;;;;;;;;;;5021014;28;20431;-83
2022/05/29 12:16:27;;;;;;;9.38;3.15;;;;;;;;;;5021142;28;20431;-81
2022/05/29 12:18:55;;;;;;;12.88;3.60;;;;;;;;;;5023177;28;20469;-82
2022/05/29 12:21:25;;;;;;;10.07;3.00;;;;;;;;;;5022459;28;20438;-82
2022/05/29 12:23:53;;;;;;;9.75;3.10;;;;;;;;;;5023304;28;20446;-82
2022/05/29 12:26:21;;;;;;;6.65;2.50;;;;;;;;;;5025222;28;20429;-82
2022/05/29 12:28:52;;;;;;;10.65;3.22;;;;;;;;;;5023206;28;20416;-82
2022/05/29 12:31:21;;;;;;;10.73;3.78;;;;;;;;;;5023462;28;20437;-83
2022/05/29 12:33:47;;;;;;;13.80;3.78;;;;;;;;;;5023425;28;20945;-83
2022/05/29 12:36:18;;;;;;;10.27;4.07;;;;;;;;;;5020885;28;20434;-82
2022/05/29 12:38:51;;;;;;;13.27;4.25;;;;;;;;;;5021817;28;20424;-82
2022/05/29 12:41:24;;;;;;;12.77;3.92;;;;;;;;;;5021916;28;20469;-83
2022/05/29 12:44:08;;;;;;;8.52;3.20;;;;;;;;;;5020821;28;20456;-82
2022/05/29 12:46:51;;;;;;;9.17;3.43;;;;;;;;;;5020932;28;20447;-84
2022/05/29 12:49:28;;;;;;;15.00;4.10;;;;;;;;;;5022432;28;20418;-83
2022/05/29 12:52:13;;;;;;;8.80;4.05;;;;;;;;;;5019937;28;20383;-81
2022/05/29 12:54:46;;;;;;;9.88;3.78;;;;;;;;;;5020661;28;20438;-82
2022/05/29 12:57:32;;;;;;;9.63;3.50;;;;;;;;;;5021657;28;20418;-83
2022/05/29 13:00:07;;;;;;;9.63;3.67;;;;;;;;;;5022970;28;20425;-82
2022/05/29 13:02:46;;;;;;;10.05;3.38;;;;;;;;;;5023157;28;20922;-82
2022/05/29 13:05:23;;;;;;;8.95;3.60;;;;;;;;;;5023704;28;20418;-82
2022/05/29 13:07:57;;;;;;;14.05;3.97;;;;;;;;;;5023082;28;20473;-82
2022/05/29 13:10:27;;;;;;;10.27;4.28;;;;;;;;;;5023202;28;20418;-83
2022/05/29 13:12:54;;;;;;;12.45;4.13;;;;;;;;;;5023779;28;20442;-83
2022/05/29 13:15:27;;;;;;;11.43;3.42;;;;;;;;;;5023095;28;20447;-83
2022/05/29 13:18:04;;;;;;;9.75;3.60;;;;;;;;;;5022127;28;20531;-82
2022/05/29 13:20:30;;;;;;;12.10;3.60;;;;;;;;;;5028124;28;20424;-82
2022/05/29 13:22:59;;;;;;;11.18;3.60;;;;;;;;;;5027419;28;21098;-83
2022/05/29 13:25:27;;;;;;;8.73;3.70;;;;;;;;;;5028059;28;20423;-84
2022/05/29 13:27:53;;;;;;;13.80;3.97;;;;;;;;;;5022919;28;20897;-85
2022/05/29 13:31:00;;;;;;;12.48;3.75;;;;;;;;;;5024807;28;20419;-84
2022/05/29 13:33:48;;;;;;;13.90;3.50;;;;;;;;;;5024230;28;20415;-84
2022/05/29 13:36:33;;;;;;;15.00;4.03;;;;;;;;;;5024428;28;20441;-83
2022/05/29 13:38:59;;;;;;;11.00;3.47;;;;;;;;;;5024819;28;21014;-84
2022/05/29 13:41:26;;;;;;;9.65;3.45;;;;;;;;;;5024669;28;20430;-83
2022/05/29 13:43:53;;;;;;;10.57;3.33;;;;;;;;;;5021413;28;20416;-83
2022/05/29 13:46:21;;;;;;;14.35;4.10;;;;;;;;;;5025593;28;20411;-84
2022/05/29 13:49:01;;;;;;;11.95;4.10;;;;;;;;;;5024781;28;20418;-81
2022/05/29 13:51:28;;;;;;;11.63;4.03;;;;;;;;;;5022813;28;20435;-82
2022/05/29 13:53:59;;;;;;;10.00;3.90;;;;;;;;;;5023599;28;20474;-83
2022/05/29 13:56:40;;;;;;;11.30;3.97;;;;;;;;;;5027148;28;20527;-82
2022/05/29 14:04:43;;;;;;;14.43;3.97;;;;;;;;;;5025128;28;20400;-82
2022/05/29 14:07:14;;;;;;;15.50;3.72;;;;;;;;;;5024601;28;20417;-83
2022/05/29 14:09:41;;;;;;;13.43;4.20;;;;;;;;;;5025162;28;20427;-81
2022/05/29 14:12:13;;;;;;;13.60;3.72;;;;;;;;;;5023483;28;20416;-83
2022/05/29 14:14:44;;;;;;;14.13;4.00;;;;;;;;;;5025312;28;20495;-82
2022/05/29 14:17:14;;;;;;;15.25;5.00;;;;;;;;;;5026624;28;20431;-83
2022/05/29 14:19:54;;;;;;;13.68;3.95;;;;;;;;;;5027246;28;20488;-83
2022/05/29 14:22:32;;;;;;;14.65;3.60;;;;;;;;;;5025649;28;20853;-83
2022/05/29 14:25:16;;;;;;;11.23;3.80;;;;;;;;;;5025866;28;20423;-83
2022/05/29 14:30:49;;;;;;;13.90;4.22;;;;;;;;;;5082384;27;20379;-82
2022/05/29 14:33:31;;;;;;;11.90;3.60;;;;;;;;;;5067548;28;20428;-84
2022/05/29 14:36:10;;;;;;;9.32;3.95;;;;;;;;;;5060646;28;20452;-83
2022/05/29 14:38:47;;;;;;;12.80;3.20;;;;;;;;;;5059943;28;20504;-82
2022/05/29 14:41:17;;;;;;;11.13;3.40;;;;;;;;;;5061908;28;20444;-82
2022/05/29 14:43:43;;;;;;;14.30;3.30;;;;;;;;;;5062428;28;20432;-83
2022/05/29 14:46:16;;;;;;;15.83;3.33;;;;;;;;;;5063983;28;20533;-83
2022/05/29 14:48:55;;;;;;;12.55;4.03;;;;;;;;;;5062025;28;20421;-83
2022/05/29 14:51:23;;;;;;;12.35;3.95;;;;;;;;;;5062685;28;20464;-83
2022/05/29 14:53:54;;;;;;;12.80;3.70;;;;;;;;;;5062544;28;20521;-82
2022/05/29 14:56:30;;;;;;;11.55;4.18;;;;;;;;;;5063483;28;20421;-84
2022/05/29 14:59:14;;;;;;;14.07;4.00;;;;;;;;;;5061244;28;20440;-83
2022/05/29 15:01:42;;;;;;;14.82;3.58;;;;;;;;;;5061192;28;20787;-84
2022/05/29 15:04:12;;;;;;;12.00;3.78;;;;;;;;;;5062582;28;20462;-83
2022/05/29 15:10:30;;;;;;;16.45;4.57;;;;;;;;;;5062463;28;20496;-82
2022/05/29 15:12:20;;;;;;;11.90;3.42;;;;;;;;;;5061792;28;20428;-81
2022/05/29 15:14:46;;;;;;;11.20;3.33;;;;;;;;;;5063411;28;20430;-82
2022/05/29 15:17:20;;;;;;;9.45;2.90;;;;;;;;;;5061811;28;20478;-82
2022/05/29 15:25:18;;;;;;;13.82;3.97;;;;;;;;;;5062383;28;20419;-82
2022/05/29 15:27:45;;;;;;;12.45;3.35;;;;;;;;;;5060300;28;20447;-81
2022/05/29 15:30:14;;;;;;;12.95;3.10;;;;;;;;;;5060310;28;20429;-82
2022/05/29 15:32:41;;;;;;;15.65;3.95;;;;;;;;;;5060976;28;20497;-82